Time,TemperatureF,DewpointF,PressureIn,WindDirection,WindDirectionDegrees,WindSpeedMPH,WindSpeedGustMPH,Humidity,HourlyPrecipIn,Conditions,Clouds,dailyrainin,SoftwareType,DateUTC
2013-03-28 00:00:00,37.6,36.3,29.88,NE,49,6.0,7.0,95,0.00,,,0.11,Wunderground v.1.15,2013-03-28 04:00:00,
2013-03-28 00:05:00,37.6,36.3,29.88,NNE,17,6.0,7.0,95,0.00,,,0.00,Wunderground v.1.15,2013-03-28 04:05:00,
2013-03-28 00:10:00,37.6,36.3,29.88,NNE,26,6.0,6.0,95,0.00,,,0.00,Wunderground v.1.15,2013-03-28 04:10:00,
2013-03-28 00:15:00,37.6,36.3,29.88,North,11,6.0,7.0,95,0.00,,,0.00,Wunderground v.1.15,2013-03-28 04:15:00,
2013-03-28 00:20:00,37.5,36.2,29.88,NE,36,5.0,7.0,95,0.00,,,0.00,Wunderground v.1.15,2013-03-28 04:20:00,
2013-03-28 00:30:00,37.5,36.2,29.88,NNE,30,4.0,7.0,95,0.00,,,0.00,Wunderground v.1.15,2013-03-28 04:30:00,
2013-03-28 00:35:00,37.4,36.1,29.88,NNE,31,4.0,7.0,95,0.00,,,0.00,Wunderground v.1.15,2013-03-28 04:35:00,
2013-03-28 00:40:00,37.4,36.1,29.88,NNE,30,4.0,7.0,95,0.00,,,0.00,Wunderground v.1.15,2013-03-28 04:40:00,
2013-03-28 00:45:00,37.4,36.1,29.88,NE,40,5.0,7.0,95,0.00,,,0.00,Wunderground v.1.15,2013-03-28 04:45:00,
2013-03-28 00:50:00,37.3,36.0,29.88,NE,37,5.0,5.0,95,0.00,,,0.00,Wunderground v.1.15,2013-03-28 04:50:00,
2013-03-28 00:55:00,37.3,36.0,29.88,NNE,33,5.0,7.0,95,0.00,,,0.00,Wunderground v.1.15,2013-03-28 04:55:00,
2013-03-28 01:05:00,37.2,35.9,29.88,NNE,20,5.0,7.0,95,0.00,,,0.00,Wunderground v.1.15,2013-03-28 05:05:00,
2013-03-28 01:10:00,37.1,35.8,29.88,NNW,341,5.0,7.0,95,0.00,,,0.00,Wunderground v.1.15,2013-03-28 05:10:00,
2013-03-28 01:15:00,37.1,35.8,29.89,NE,44,4.0,7.0,95,0.00,,,0.00,Wunderground v.1.15,2013-03-28 05:15:00,
2013-03-28 01:20:00,37.2,35.9,29.89,NE,46,4.0,4.0,95,0.00,,,0.00,Wunderground v.1.15,2013-03-28 05:20:00,
2013-03-28 01:25:00,37.1,35.8,29.89,NNE,28,5.0,5.0,95,0.00,,,0.00,Wunderground v.1.15,2013-03-28 05:25:00,
2013-03-28 01:30:00,37.2,35.9,29.88,NNE,24,6.0,7.0,95,0.00,,,0.00,Wunderground v.1.15,2013-03-28 05:30:00,
2013-03-28 01:35:00,37.1,35.8,29.89,NE,35,6.0,7.0,95,0.00,,,0.00,Wunderground v.1.15,2013-03-28 05:35:00,
2013-03-28 01:40:00,37.0,35.4,29.89,NNE,25,5.0,5.0,94,0.00,,,0.00,Wunderground v.1.15,2013-03-28 05:40:00,
2013-03-28 01:45:00,37.0,35.7,29.89,NNE,20,5.0,7.0,95,0.00,,,0.00,Wunderground v.1.15,2013-03-28 05:45:00,
2013-03-28 01:55:00,36.9,35.6,29.89,NNE,29,4.0,7.0,95,0.00,,,0.00,Wunderground v.1.15,2013-03-28 05:55:00,
2013-03-28 02:00:00,36.9,35.6,29.88,NNE,32,4.0,7.0,95,0.00,,,0.00,Wunderground v.1.15,2013-03-28 06:00:00,
2013-03-28 02:10:00,36.8,35.5,29.89,NE,47,4.0,4.0,95,0.00,,,0.00,Wunderground v.1.15,2013-03-28 06:10:00,
2013-03-28 02:15:00,36.8,35.5,29.89,NNE,28,4.0,7.0,95,0.00,,,0.00,Wunderground v.1.15,2013-03-28 06:15:00,
2013-03-28 02:20:00,36.7,35.4,29.89,NE,36,4.0,4.0,95,0.00,,,0.00,Wunderground v.1.15,2013-03-28 06:20:00,
2013-03-28 02:25:00,36.6,36.6,29.88,NNE,20,4.0,5.0,100,0.00,,,0.00,Wunderground v.1.15,2013-03-28 06:25:00,
2013-03-28 02:30:00,36.6,35.3,29.88,NNE,20,4.0,4.0,95,0.00,,,0.00,Wunderground v.1.15,2013-03-28 06:30:00,
2013-03-28 02:35:00,36.6,35.3,29.88,NNE,30,4.0,5.0,95,0.00,,,0.00,Wunderground v.1.15,2013-03-28 06:35:00,
2013-03-28 02:45:00,36.5,35.2,29.88,NE,36,4.0,7.0,95,0.00,,,0.00,Wunderground v.1.15,2013-03-28 06:45:00,
2013-03-28 02:50:00,36.5,35.2,29.89,NNE,31,4.0,7.0,95,0.00,,,0.00,Wunderground v.1.15,2013-03-28 06:50:00,
2013-03-28 02:55:00,36.5,35.2,29.89,NNE,30,4.0,8.0,95,0.00,,,0.00,Wunderground v.1.15,2013-03-28 06:55:00,
2013-03-28 03:00:00,36.5,36.5,29.89,NNE,19,5.0,7.0,100,0.00,,,0.00,Wunderground v.1.15,2013-03-28 07:00:00,
2013-03-28 03:05:00,36.5,35.2,29.89,NNE,32,5.0,7.0,95,0.00,,,0.00,Wunderground v.1.15,2013-03-28 07:05:00,
2013-03-28 03:15:00,36.6,35.0,29.89,NNE,32,5.0,7.0,94,0.00,,,0.00,Wunderground v.1.15,2013-03-28 07:15:00,
2013-03-28 03:20:00,36.6,35.0,29.89,North,11,5.0,5.0,94,0.00,,,0.00,Wunderground v.1.15,2013-03-28 07:20:00,
2013-03-28 03:25:00,36.6,35.0,29.89,NE,35,4.0,7.0,94,0.00,,,0.00,Wunderground v.1.15,2013-03-28 07:25:00,
2013-03-28 03:30:00,36.6,35.0,29.89,NE,34,4.0,4.0,94,0.00,,,0.00,Wunderground v.1.15,2013-03-28 07:30:00,
2013-03-28 03:35:00,36.6,35.0,29.89,NE,35,4.0,7.0,94,0.00,,,0.00,Wunderground v.1.15,2013-03-28 07:35:00,
2013-03-28 03:40:00,36.6,35.0,29.89,NE,34,4.0,7.0,94,0.00,,,0.00,Wunderground v.1.15,2013-03-28 07:40:00,
2013-03-28 03:50:00,36.5,34.9,29.89,NNE,20,4.0,7.0,94,0.00,,,0.00,Wunderground v.1.15,2013-03-28 07:50:00,
2013-03-28 03:55:00,36.5,34.9,29.89,NNE,33,4.0,7.0,94,0.00,,,0.00,Wunderground v.1.15,2013-03-28 07:55:00,
2013-03-28 04:00:00,36.5,34.9,29.89,NNW,343,4.0,7.0,94,0.00,,,0.00,Wunderground v.1.15,2013-03-28 08:00:00,
2013-03-28 04:10:00,36.4,34.8,29.89,North,5,4.0,7.0,94,0.00,,,0.00,Wunderground v.1.15,2013-03-28 08:10:00,
2013-03-28 04:15:00,36.4,34.8,29.89,NNE,12,4.0,7.0,94,0.00,,,0.00,Wunderground v.1.15,2013-03-28 08:15:00,
2013-03-28 04:20:00,36.3,34.7,29.90,NNE,26,3.0,7.0,94,0.00,,,0.00,Wunderground v.1.15,2013-03-28 08:20:00,
2013-03-28 04:30:00,36.3,34.7,29.90,NNE,27,4.0,7.0,94,0.00,,,0.00,Wunderground v.1.15,2013-03-28 08:30:00,
2013-03-28 04:35:00,36.2,34.6,29.90,NNE,28,4.0,7.0,94,0.00,,,0.00,Wunderground v.1.15,2013-03-28 08:35:00,
2013-03-28 04:40:00,36.2,34.6,29.90,NNE,23,4.0,4.0,94,0.00,,,0.00,Wunderground v.1.15,2013-03-28 08:40:00,
2013-03-28 04:45:00,36.2,34.6,29.90,NE,37,4.0,7.0,94,0.00,,,0.00,Wunderground v.1.15,2013-03-28 08:45:00,
2013-03-28 04:55:00,36.1,34.5,29.90,NNE,19,3.0,7.0,94,0.00,,,0.00,Wunderground v.1.15,2013-03-28 08:55:00,
2013-03-28 05:00:00,36.1,34.5,29.90,NE,43,4.0,7.0,94,0.00,,,0.00,Wunderground v.1.15,2013-03-28 09:00:00,
2013-03-28 05:05:00,36.1,34.3,29.90,NNE,15,4.0,7.0,93,0.00,,,0.00,Wunderground v.1.15,2013-03-28 09:05:00,
2013-03-28 05:10:00,36.1,34.3,29.90,NNE,13,4.0,7.0,93,0.00,,,0.00,Wunderground v.1.15,2013-03-28 09:10:00,
2013-03-28 05:15:00,36.0,34.2,29.90,NNE,27,4.0,7.0,93,0.00,,,0.00,Wunderground v.1.15,2013-03-28 09:15:00,
2013-03-28 05:20:00,35.9,34.1,29.90,NNE,26,3.0,3.0,93,0.00,,,0.00,Wunderground v.1.15,2013-03-28 09:20:00,
2013-03-28 05:30:00,35.7,33.9,29.91,NE,37,2.0,7.0,93,0.00,,,0.00,Wunderground v.1.15,2013-03-28 09:30:00,
2013-03-28 05:35:00,35.6,33.8,29.90,NE,42,3.0,7.0,93,0.00,,,0.00,Wunderground v.1.15,2013-03-28 09:35:00,
2013-03-28 05:40:00,35.6,33.8,29.90,NE,38,2.0,7.0,93,0.00,,,0.00,Wunderground v.1.15,2013-03-28 09:40:00,
2013-03-28 05:45:00,35.5,33.7,29.91,NE,38,2.0,7.0,93,0.00,,,0.00,Wunderground v.1.15,2013-03-28 09:45:00,
2013-03-28 05:50:00,35.5,33.7,29.91,NE,39,1.0,7.0,93,0.00,,,0.00,Wunderground v.1.15,2013-03-28 09:50:00,
2013-03-28 06:00:00,35.4,33.6,29.91,NNE,32,2.0,7.0,93,0.00,,,0.00,Wunderground v.1.15,2013-03-28 10:00:00,
2013-03-28 06:05:00,35.4,33.6,29.91,NNE,32,2.0,7.0,93,0.00,,,0.00,Wunderground v.1.15,2013-03-28 10:05:00,
2013-03-28 06:10:00,35.3,33.5,29.91,NE,36,2.0,7.0,93,0.00,,,0.00,Wunderground v.1.15,2013-03-28 10:10:00,
2013-03-28 06:15:00,35.3,33.7,29.91,NNE,29,2.0,7.0,94,0.00,,,0.00,Wunderground v.1.15,2013-03-28 10:15:00,
2013-03-28 06:20:00,35.3,33.7,29.92,NNE,29,3.0,3.0,94,0.00,,,0.00,Wunderground v.1.15,2013-03-28 10:20:00,
2013-03-28 06:25:00,35.4,33.6,29.92,NNE,28,3.0,5.0,93,0.00,,,0.00,Wunderground v.1.15,2013-03-28 10:25:00,
2013-03-28 06:35:00,35.5,33.7,29.92,NE,44,3.0,7.0,93,0.00,,,0.00,Wunderground v.1.15,2013-03-28 10:35:00,
2013-03-28 06:40:00,35.6,33.8,29.92,NNE,32,3.0,7.0,93,0.00,,,0.00,Wunderground v.1.15,2013-03-28 10:40:00,
2013-03-28 06:45:00,35.7,33.9,29.92,NNE,33,3.0,7.0,93,0.00,,,0.00,Wunderground v.1.15,2013-03-28 10:45:00,
2013-03-28 06:50:00,35.7,33.9,29.92,NE,37,2.0,7.0,93,0.00,,,0.00,Wunderground v.1.15,2013-03-28 10:50:00,
2013-03-28 06:55:00,35.7,33.9,29.93,NE,37,1.0,7.0,93,0.00,,,0.00,Wunderground v.1.15,2013-03-28 10:55:00,
2013-03-28 07:05:00,35.9,34.1,29.93,NE,37,1.0,7.0,93,0.00,,,0.00,Wunderground v.1.15,2013-03-28 11:05:00,
2013-03-28 07:10:00,35.9,34.1,29.93,NE,37,0.0,7.0,93,0.00,,,0.00,Wunderground v.1.15,2013-03-28 11:10:00,
2013-03-28 07:15:00,35.9,34.1,29.93,NE,37,0.0,7.0,93,0.00,,,0.00,Wunderground v.1.15,2013-03-28 11:15:00,
2013-03-28 07:25:00,36.0,34.2,29.94,NE,37,0.0,7.0,93,0.00,,,0.00,Wunderground v.1.15,2013-03-28 11:25:00,
2013-03-28 07:30:00,36.0,34.2,29.94,NE,37,1.0,7.0,93,0.00,,,0.00,Wunderground v.1.15,2013-03-28 11:30:00,
2013-03-28 07:35:00,36.1,34.3,29.94,NE,37,1.0,7.0,93,0.00,,,0.00,Wunderground v.1.15,2013-03-28 11:35:00,
2013-03-28 07:45:00,36.3,34.5,29.94,NE,37,1.0,7.0,93,0.00,,,0.00,Wunderground v.1.15,2013-03-28 11:45:00,
2013-03-28 07:50:00,36.3,34.5,29.94,NE,37,0.0,7.0,93,0.00,,,0.00,Wunderground v.1.15,2013-03-28 11:50:00,
2013-03-28 07:55:00,36.4,34.6,29.94,NNE,21,0.0,7.0,93,0.00,,,0.00,Wunderground v.1.15,2013-03-28 11:55:00,
2013-03-28 08:00:00,36.6,34.8,29.94,NNE,20,0.0,7.0,93,0.00,,,0.00,Wunderground v.1.15,2013-03-28 12:00:00,
2013-03-28 08:05:00,36.7,34.9,29.94,NNE,20,1.0,7.0,93,0.00,,,0.00,Wunderground v.1.15,2013-03-28 12:05:00,
2013-03-28 08:15:00,37.0,35.2,29.94,North,349,2.0,7.0,93,0.00,,,0.00,Wunderground v.1.15,2013-03-28 12:15:00,
2013-03-28 08:20:00,37.1,35.0,29.94,NNE,27,2.0,7.0,92,0.00,,,0.00,Wunderground v.1.15,2013-03-28 12:20:00,
2013-03-28 08:25:00,37.4,35.3,29.94,NE,42,3.0,7.0,92,0.00,,,0.00,Wunderground v.1.15,2013-03-28 12:25:00,
2013-03-28 08:30:00,37.6,35.5,29.94,NE,43,3.0,3.0,92,0.00,,,0.00,Wunderground v.1.15,2013-03-28 12:30:00,
2013-03-28 08:35:00,37.9,35.8,29.94,NE,55,2.0,7.0,92,0.00,,,0.00,Wunderground v.1.15,2013-03-28 12:35:00,
2013-03-28 08:45:00,38.4,36.0,29.95,NE,35,2.0,7.0,91,0.00,,,0.00,Wunderground v.1.15,2013-03-28 12:45:00,
2013-03-28 08:50:00,38.6,36.2,29.95,NE,40,3.0,3.0,91,0.00,,,0.00,Wunderground v.1.15,2013-03-28 12:50:00,
2013-03-28 08:55:00,39.0,36.3,29.95,NNE,28,3.0,4.0,90,0.00,,,0.00,Wunderground v.1.15,2013-03-28 12:55:00,
2013-03-28 09:00:00,39.3,36.3,29.95,NNE,26,4.0,7.0,89,0.00,,,0.00,Wunderground v.1.15,2013-03-28 13:00:00,
2013-03-28 09:05:00,39.5,36.2,29.95,NNE,17,4.0,7.0,88,0.00,,,0.00,Wunderground v.1.15,2013-03-28 13:05:00,
2013-03-28 09:10:00,39.6,36.3,29.95,NNE,33,4.0,7.0,88,0.00,,,0.00,Wunderground v.1.15,2013-03-28 13:10:00,
2013-03-28 09:20:00,40.4,36.8,29.94,NNE,17,3.0,7.0,87,0.00,,,0.00,Wunderground v.1.15,2013-03-28 13:20:00,
2013-03-28 09:25:00,40.7,36.8,29.95,North,5,4.0,7.0,86,0.00,,,0.00,Wunderground v.1.15,2013-03-28 13:25:00,
2013-03-28 09:30:00,41.2,37.3,29.95,NE,35,3.0,7.0,86,0.00,,,0.00,Wunderground v.1.15,2013-03-28 13:30:00,
2013-03-28 09:35:00,41.4,37.2,29.95,NNE,19,4.0,7.0,85,0.00,,,0.00,Wunderground v.1.15,2013-03-28 13:35:00,
2013-03-28 09:40:00,41.3,36.2,29.95,NNE,17,6.0,10.0,82,0.00,,,0.00,Wunderground v.1.15,2013-03-28 13:40:00,
2013-03-28 09:50:00,41.6,35.9,29.95,North,5,7.0,7.0,80,0.00,,,0.00,Wunderground v.1.15,2013-03-28 13:50:00,
2013-03-28 09:55:00,42.2,36.8,29.95,North,5,6.0,7.0,81,0.00,,,0.00,Wunderground v.1.15,2013-03-28 13:55:00,
2013-03-28 10:00:00,42.6,36.5,29.95,NNE,13,6.0,7.0,79,0.00,,,0.00,Wunderground v.1.15,2013-03-28 14:00:00,
2013-03-28 10:05:00,42.9,36.8,29.95,NW,306,5.0,13.0,79,0.00,,,0.00,Wunderground v.1.15,2013-03-28 14:05:00,
2013-03-28 10:10:00,42.7,35.7,29.95,NNE,20,6.0,6.0,76,0.00,,,0.00,Wunderground v.1.15,2013-03-28 14:10:00,
2013-03-28 10:15:00,42.8,35.8,29.95,NNE,16,6.0,7.0,76,0.00,,,0.00,Wunderground v.1.15,2013-03-28 14:15:00,
2013-03-28 10:25:00,43.0,36.0,29.96,NE,53,6.0,7.0,76,0.00,,,0.00,Wunderground v.1.15,2013-03-28 14:25:00,
2013-03-28 10:30:00,43.1,35.7,29.96,NW,311,6.0,9.0,75,0.00,,,0.00,Wunderground v.1.15,2013-03-28 14:30:00,
2013-03-28 10:35:00,43.1,35.7,29.96,NNW,344,7.0,9.0,75,0.00,,,0.00,Wunderground v.1.15,2013-03-28 14:35:00,
2013-03-28 10:40:00,43.1,35.7,29.96,NW,311,8.0,9.0,75,0.00,,,0.00,Wunderground v.1.15,2013-03-28 14:40:00,
2013-03-28 10:45:00,43.4,35.7,29.96,WNW,300,7.0,9.0,74,0.00,,,0.00,Wunderground v.1.15,2013-03-28 14:45:00,
2013-03-28 10:55:00,43.7,36.0,29.96,NNE,33,5.0,7.0,74,0.00,,,0.00,Wunderground v.1.15,2013-03-28 14:55:00,
2013-03-28 11:00:00,43.7,35.6,29.96,NNW,334,5.0,8.0,73,0.00,,,0.00,Wunderground v.1.15,2013-03-28 15:00:00,
2013-03-28 11:05:00,43.9,36.1,29.96,NE,37,6.0,8.0,74,0.00,,,0.00,Wunderground v.1.15,2013-03-28 15:05:00,
2013-03-28 11:10:00,43.8,35.4,29.96,NNE,20,6.0,10.0,72,0.00,,,0.00,Wunderground v.1.15,2013-03-28 15:10:00,
2013-03-28 11:15:00,43.9,35.8,29.96,West,274,7.0,10.0,73,0.00,,,0.00,Wunderground v.1.15,2013-03-28 15:15:00,
2013-03-28 11:20:00,44.0,35.6,29.96,North,5,6.0,6.0,72,0.00,,,0.00,Wunderground v.1.15,2013-03-28 15:20:00,
2013-03-28 11:30:00,44.1,35.6,29.96,NNW,345,5.0,7.0,72,0.00,,,0.00,Wunderground v.1.15,2013-03-28 15:30:00,
2013-03-28 11:35:00,44.2,35.7,29.96,WNW,290,5.0,9.0,72,0.00,,,0.00,Wunderground v.1.15,2013-03-28 15:35:00,
2013-03-28 11:40:00,44.0,35.6,29.96,WNW,299,6.0,6.0,72,0.00,,,0.00,Wunderground v.1.15,2013-03-28 15:40:00,
2013-03-28 11:50:00,44.3,35.8,29.96,WNW,288,5.0,9.0,72,0.00,,,0.00,Wunderground v.1.15,2013-03-28 15:50:00,
2013-03-28 11:55:00,44.2,35.7,29.96,WSW,258,5.0,9.0,72,0.00,,,0.00,Wunderground v.1.15,2013-03-28 15:55:00,
2013-03-28 12:00:00,44.3,35.8,29.95,NW,315,6.0,9.0,72,0.00,,,0.00,Wunderground v.1.15,2013-03-28 16:00:00,
2013-03-28 12:05:00,44.3,34.8,29.95,NW,306,6.0,9.0,69,0.00,,,0.00,Wunderground v.1.15,2013-03-28 16:05:00,
2013-03-28 12:15:00,44.9,35.7,29.95,NNE,29,6.0,7.0,70,0.00,,,0.00,Wunderground v.1.15,2013-03-28 16:15:00,
2013-03-28 12:20:00,45.3,36.1,29.96,NW,313,4.0,7.0,70,0.00,,,0.00,Wunderground v.1.15,2013-03-28 16:20:00,
2013-03-28 12:25:00,45.6,36.0,29.95,NNE,18,4.0,7.0,69,0.00,,,0.00,Wunderground v.1.15,2013-03-28 16:25:00,
2013-03-28 12:35:00,45.4,35.5,29.96,ENE,65,5.0,7.0,68,0.00,,,0.00,Wunderground v.1.15,2013-03-28 16:35:00,
2013-03-28 12:40:00,45.7,35.4,29.95,NW,324,4.0,8.0,67,0.00,,,0.00,Wunderground v.1.15,2013-03-28 16:40:00,
2013-03-28 12:45:00,45.7,35.0,29.95,NE,38,4.0,8.0,66,0.00,,,0.00,Wunderground v.1.15,2013-03-28 16:45:00,
2013-03-28 12:50:00,45.5,35.2,29.95,WNW,286,5.0,5.0,67,0.00,,,0.00,Wunderground v.1.15,2013-03-28 16:50:00,
2013-03-28 12:55:00,45.8,35.1,29.95,NNE,15,6.0,6.0,66,0.00,,,0.00,Wunderground v.1.15,2013-03-28 16:55:00,
2013-03-28 13:00:00,46.0,35.3,29.95,NW,317,6.0,6.0,66,0.00,,,0.00,Wunderground v.1.15,2013-03-28 17:00:00,
2013-03-28 13:05:00,46.2,35.1,29.95,NNW,336,6.0,7.0,65,0.00,,,0.00,Wunderground v.1.15,2013-03-28 17:05:00,
2013-03-28 13:10:00,46.2,33.9,29.95,NNW,342,6.0,6.0,62,0.00,,,0.00,Wunderground v.1.15,2013-03-28 17:10:00,
2013-03-28 13:15:00,46.5,33.4,29.95,NE,40,6.0,7.0,60,0.00,,,0.00,Wunderground v.1.15,2013-03-28 17:15:00,
2013-03-28 13:20:00,46.3,33.6,29.95,NE,54,6.0,7.0,61,0.00,,,0.00,Wunderground v.1.15,2013-03-28 17:20:00,
2013-03-28 13:25:00,46.2,32.7,29.95,WSW,240,6.0,8.0,59,0.00,,,0.00,Wunderground v.1.15,2013-03-28 17:25:00,
2013-03-28 13:30:00,46.4,32.0,29.95,NNE,33,5.0,5.0,57,0.00,,,0.00,Wunderground v.1.15,2013-03-28 17:30:00,
2013-03-28 13:40:00,47.2,33.6,29.94,SSW,213,4.0,7.0,59,0.00,,,0.00,Wunderground v.1.15,2013-03-28 17:40:00,
2013-03-28 13:45:00,47.2,32.3,29.94,NNE,15,4.0,7.0,56,0.00,,,0.00,Wunderground v.1.15,2013-03-28 17:45:00,
2013-03-28 13:50:00,46.4,32.0,29.94,NNE,16,5.0,7.0,57,0.00,,,0.00,Wunderground v.1.15,2013-03-28 17:50:00,
2013-03-28 13:55:00,46.3,32.3,29.94,NNE,19,5.0,7.0,58,0.00,,,0.00,Wunderground v.1.15,2013-03-28 17:55:00,
2013-03-28 14:00:00,46.6,32.6,29.94,West,264,3.0,3.0,58,0.00,,,0.00,Wunderground v.1.15,2013-03-28 18:00:00,
2013-03-28 14:05:00,46.9,32.9,29.94,NNE,21,2.0,7.0,58,0.00,,,0.00,Wunderground v.1.15,2013-03-28 18:05:00,
2013-03-28 14:15:00,47.0,33.0,29.94,NW,319,2.0,7.0,58,0.00,,,0.00,Wunderground v.1.15,2013-03-28 18:15:00,
2013-03-28 14:20:00,47.0,33.0,29.94,North,5,3.0,3.0,58,0.00,,,0.00,Wunderground v.1.15,2013-03-28 18:20:00,
2013-03-28 14:25:00,46.9,32.9,29.94,NNW,341,3.0,4.0,58,0.00,,,0.00,Wunderground v.1.15,2013-03-28 18:25:00,
2013-03-28 14:30:00,46.9,32.4,29.94,West,281,2.0,7.0,57,0.00,,,0.00,Wunderground v.1.15,2013-03-28 18:30:00,
2013-03-28 14:35:00,46.8,32.4,29.94,NNE,30,3.0,7.0,57,0.00,,,0.00,Wunderground v.1.15,2013-03-28 18:35:00,
2013-03-28 14:45:00,47.3,33.3,29.94,North,11,1.0,7.0,58,0.00,,,0.00,Wunderground v.1.15,2013-03-28 18:45:00,
2013-03-28 14:50:00,47.5,33.0,29.94,NNE,15,2.0,2.0,57,0.00,,,0.00,Wunderground v.1.15,2013-03-28 18:50:00,
2013-03-28 14:55:00,47.8,32.4,29.94,WNW,294,4.0,8.0,55,0.00,,,0.00,Wunderground v.1.15,2013-03-28 18:55:00,
2013-03-28 15:05:00,47.4,32.0,29.94,NW,306,6.0,8.0,55,0.00,,,0.00,Wunderground v.1.15,2013-03-28 19:05:00,
2013-03-28 15:10:00,47.3,32.4,29.94,NNW,330,6.0,7.0,56,0.00,,,0.00,Wunderground v.1.15,2013-03-28 19:10:00,
2013-03-28 15:15:00,47.2,32.3,29.94,NE,39,4.0,7.0,56,0.00,,,0.00,Wunderground v.1.15,2013-03-28 19:15:00,
2013-03-28 15:25:00,47.2,32.3,29.94,NW,306,3.0,7.0,56,0.00,,,0.00,Wunderground v.1.15,2013-03-28 19:25:00,
2013-03-28 15:30:00,47.4,32.5,29.94,NE,44,3.0,7.0,56,0.00,,,0.00,Wunderground v.1.15,2013-03-28 19:30:00,
2013-03-28 15:35:00,47.7,32.8,29.94,NW,317,4.0,7.0,56,0.00,,,0.00,Wunderground v.1.15,2013-03-28 19:35:00,
2013-03-28 15:40:00,48.0,33.0,29.93,NNW,346,3.0,7.0,56,0.00,,,0.00,Wunderground v.1.15,2013-03-28 19:40:00,
2013-03-28 15:45:00,48.6,33.1,29.93,WNW,300,2.0,7.0,55,0.00,,,0.00,Wunderground v.1.15,2013-03-28 19:45:00,
2013-03-28 15:55:00,48.9,32.5,29.93,WNW,302,3.0,3.0,53,0.00,,,0.00,Wunderground v.1.15,2013-03-28 19:55:00,
2013-03-28 16:00:00,48.3,32.4,29.93,NNE,29,5.0,5.0,54,0.00,,,0.00,Wunderground v.1.15,2013-03-28 20:00:00,
2013-03-28 16:05:00,48.0,31.7,29.93,NW,312,5.0,7.0,53,0.00,,,0.00,Wunderground v.1.15,2013-03-28 20:05:00,
2013-03-28 16:10:00,47.9,32.0,29.93,WNW,300,4.0,7.0,54,0.00,,,0.00,Wunderground v.1.15,2013-03-28 20:10:00,
2013-03-28 16:15:00,47.9,32.0,29.93,NW,323,4.0,7.0,54,0.00,,,0.00,Wunderground v.1.15,2013-03-28 20:15:00,
2013-03-28 16:25:00,47.8,31.9,29.93,North,355,3.0,7.0,54,0.00,,,0.00,Wunderground v.1.15,2013-03-28 20:25:00,
2013-03-28 16:30:00,47.9,32.0,29.93,NE,46,2.0,7.0,54,0.00,,,0.00,Wunderground v.1.15,2013-03-28 20:30:00,
2013-03-28 16:35:00,48.2,32.8,29.93,NE,47,1.0,7.0,55,0.00,,,0.00,Wunderground v.1.15,2013-03-28 20:35:00,
2013-03-28 16:40:00,48.6,32.2,29.93,WNW,302,1.0,7.0,53,0.00,,,0.00,Wunderground v.1.15,2013-03-28 20:40:00,
2013-03-28 16:45:00,48.7,32.8,29.93,West,269,1.0,7.0,54,0.00,,,0.00,Wunderground v.1.15,2013-03-28 20:45:00,
2013-03-28 16:50:00,49.0,32.6,29.93,West,269,1.0,1.0,53,0.00,,,0.00,Wunderground v.1.15,2013-03-28 20:50:00,
2013-03-28 17:00:00,49.4,32.5,29.93,NW,304,1.0,1.0,52,0.00,,,0.00,Wunderground v.1.15,2013-03-28 21:00:00,
2013-03-28 17:05:00,49.6,32.7,29.93,NW,306,1.0,3.0,52,0.00,,,0.00,Wunderground v.1.15,2013-03-28 21:05:00,
2013-03-28 17:10:00,49.9,33.0,29.93,NW,305,1.0,7.0,52,0.00,,,0.00,Wunderground v.1.15,2013-03-28 21:10:00,
2013-03-28 17:15:00,50.9,32.9,29.93,NW,305,1.0,7.0,50,0.00,,,0.00,Wunderground v.1.15,2013-03-28 21:15:00,
2013-03-28 17:20:00,51.8,33.2,29.93,NW,305,0.0,7.0,49,0.00,,,0.00,Wunderground v.1.15,2013-03-28 21:20:00,
2013-03-28 17:30:00,51.4,31.8,29.93,NE,44,1.0,1.0,47,0.00,,,0.00,Wunderground v.1.15,2013-03-28 21:30:00,
2013-03-28 17:35:00,50.9,31.9,29.93,WNW,282,2.0,5.0,48,0.00,,,0.00,Wunderground v.1.15,2013-03-28 21:35:00,
2013-03-28 17:40:00,50.8,32.3,29.93,West,275,3.0,3.0,49,0.00,,,0.00,Wunderground v.1.15,2013-03-28 21:40:00,
2013-03-28 17:45:00,50.9,31.9,29.94,WNW,287,2.0,7.0,48,0.00,,,0.00,Wunderground v.1.15,2013-03-28 21:45:00,
2013-03-28 17:50:00,50.3,31.3,29.94,West,278,2.0,7.0,48,0.00,,,0.00,Wunderground v.1.15,2013-03-28 21:50:00,
2013-03-28 17:55:00,49.7,31.8,29.94,West,278,2.0,7.0,50,0.00,,,0.00,Wunderground v.1.15,2013-03-28 21:55:00,
2013-03-28 18:05:00,48.6,32.7,29.93,West,272,1.0,7.0,54,0.00,,,0.00,Wunderground v.1.15,2013-03-28 22:05:00,
2013-03-28 18:10:00,47.8,32.4,29.93,WSW,258,2.0,2.0,55,0.00,,,0.00,Wunderground v.1.15,2013-03-28 22:10:00,
2013-03-28 18:15:00,47.1,32.6,29.94,WSW,258,1.0,7.0,57,0.00,,,0.00,Wunderground v.1.15,2013-03-28 22:15:00,
2013-03-28 18:20:00,46.5,32.9,29.94,WSW,258,0.0,7.0,59,0.00,,,0.00,Wunderground v.1.15,2013-03-28 22:20:00,
2013-03-28 18:25:00,46.2,33.5,29.94,WSW,258,0.0,7.0,61,0.00,,,0.00,Wunderground v.1.15,2013-03-28 22:25:00,
2013-03-28 18:35:00,45.3,34.2,29.94,WSW,240,1.0,3.0,65,0.00,,,0.00,Wunderground v.1.15,2013-03-28 22:35:00,
2013-03-28 18:40:00,45.4,33.5,29.95,SW,233,3.0,7.0,63,0.00,,,0.00,Wunderground v.1.15,2013-03-28 22:40:00,
2013-03-28 18:45:00,45.6,33.3,29.95,SW,227,4.0,7.0,62,0.00,,,0.00,Wunderground v.1.15,2013-03-28 22:45:00,
2013-03-28 18:50:00,45.7,33.8,29.95,SW,236,3.0,7.0,63,0.00,,,0.00,Wunderground v.1.15,2013-03-28 22:50:00,
2013-03-28 19:00:00,45.4,33.9,29.95,SW,223,3.0,3.0,64,0.00,,,0.00,Wunderground v.1.15,2013-03-28 23:00:00,
2013-03-28 19:10:00,45.4,34.3,29.95,SW,221,2.0,2.0,65,0.00,,,0.00,Wunderground v.1.15,2013-03-28 23:10:00,
2013-03-28 19:15:00,45.2,34.9,29.96,SW,223,1.0,7.0,67,0.00,,,0.00,Wunderground v.1.15,2013-03-28 23:15:00,
2013-03-28 19:20:00,45.0,34.3,29.96,SW,223,0.0,7.0,66,0.00,,,0.00,Wunderground v.1.15,2013-03-28 23:20:00,
2013-03-28 19:25:00,45.0,34.3,29.96,SW,223,0.0,7.0,66,0.00,,,0.00,Wunderground v.1.15,2013-03-28 23:25:00,
2013-03-28 19:30:00,45.0,34.7,29.96,WSW,247,0.0,7.0,67,0.00,,,0.00,Wunderground v.1.15,2013-03-28 23:30:00,
2013-03-28 19:35:00,44.7,34.4,29.96,WSW,240,2.0,7.0,67,0.00,,,0.00,Wunderground v.1.15,2013-03-28 23:35:00,
2013-03-28 19:45:00,44.2,35.0,29.97,West,265,1.0,7.0,70,0.00,,,0.00,Wunderground v.1.15,2013-03-28 23:45:00,
2013-03-28 19:50:00,44.2,35.0,29.97,WSW,257,1.0,1.0,70,0.00,,,0.00,Wunderground v.1.15,2013-03-28 23:50:00,
2013-03-28 19:55:00,44.1,35.6,29.98,WSW,257,0.0,2.0,72,0.00,,,0.00,Wunderground v.1.15,2013-03-28 23:55:00,
2013-03-28 20:00:00,42.8,35.1,29.97,SW,227,2.0,7.0,74,0.00,,,0.00,Wunderground v.1.15,2013-03-29 00:00:00,
2013-03-28 20:05:00,42.7,35.7,29.97,SW,227,2.0,7.0,76,0.00,,,0.00,Wunderground v.1.15,2013-03-29 00:05:00,
2013-03-28 20:15:00,41.5,36.1,29.97,SW,228,1.0,7.0,81,0.00,,,0.00,Wunderground v.1.15,2013-03-29 00:15:00,
2013-03-28 20:20:00,41.4,36.0,29.98,SW,228,0.0,7.0,81,0.00,,,0.00,Wunderground v.1.15,2013-03-29 00:20:00,
2013-03-28 20:25:00,41.3,35.9,29.98,WSW,240,0.0,7.0,81,0.00,,,0.00,Wunderground v.1.15,2013-03-29 00:25:00,
2013-03-28 20:30:00,41.2,36.4,29.98,WSW,242,1.0,1.0,83,0.00,,,0.00,Wunderground v.1.15,2013-03-29 00:30:00,
2013-03-28 20:35:00,40.6,35.8,29.98,SSW,211,1.0,3.0,83,0.00,,,0.00,Wunderground v.1.15,2013-03-29 00:35:00,
2013-03-28 20:40:00,39.9,35.8,29.98,SSW,211,1.0,1.0,85,0.00,,,0.00,Wunderground v.1.15,2013-03-29 00:40:00,
2013-03-28 20:50:00,39.3,35.8,29.98,SSW,211,0.0,7.0,87,0.00,,,0.00,Wunderground v.1.15,2013-03-29 00:50:00,
2013-03-28 20:55:00,39.2,35.7,29.98,SSW,211,0.0,7.0,87,0.00,,,0.00,Wunderground v.1.15,2013-03-29 00:55:00,
2013-03-28 21:00:00,39.1,35.6,29.98,SSW,211,0.0,7.0,87,0.00,,,0.00,Wunderground v.1.15,2013-03-29 01:00:00,
2013-03-28 21:05:00,38.8,35.3,29.98,SSW,211,0.0,7.0,87,0.00,,,0.00,Wunderground v.1.15,2013-03-29 01:05:00,
2013-03-28 21:10:00,38.3,34.8,29.99,SSW,211,0.0,7.0,87,0.00,,,0.00,Wunderground v.1.15,2013-03-29 01:10:00,
2013-03-28 21:20:00,37.6,34.4,29.99,SSW,211,0.0,7.0,88,0.00,,,0.00,Wunderground v.1.15,2013-03-29 01:20:00,
2013-03-28 21:25:00,37.4,34.5,29.99,SSW,212,0.0,7.0,89,0.00,,,0.00,Wunderground v.1.15,2013-03-29 01:25:00,
2013-03-28 21:30:00,37.2,34.3,29.99,SSW,211,0.0,7.0,89,0.00,,,0.00,Wunderground v.1.15,2013-03-29 01:30:00,
2013-03-28 21:35:00,37.0,34.1,29.99,SSW,211,0.0,7.0,89,0.00,,,0.00,Wunderground v.1.15,2013-03-29 01:35:00,
2013-03-28 21:40:00,36.9,34.2,29.99,SSW,211,0.0,7.0,90,0.00,,,0.00,Wunderground v.1.15,2013-03-29 01:40:00,
2013-03-28 21:45:00,36.8,33.9,29.99,SSW,211,0.0,7.0,89,0.00,,,0.00,Wunderground v.1.15,2013-03-29 01:45:00,
2013-03-28 21:55:00,36.5,33.8,29.99,SSW,211,0.0,7.0,90,0.00,,,0.00,Wunderground v.1.15,2013-03-29 01:55:00,
2013-03-28 22:00:00,36.3,33.6,29.99,SSW,211,0.0,7.0,90,0.00,,,0.00,Wunderground v.1.15,2013-03-29 02:00:00,
2013-03-28 22:05:00,36.3,33.6,29.99,SSW,212,0.0,7.0,90,0.00,,,0.00,Wunderground v.1.15,2013-03-29 02:05:00,
2013-03-28 22:10:00,36.0,33.4,29.99,SSW,211,0.0,7.0,90,0.00,,,0.00,Wunderground v.1.15,2013-03-29 02:10:00,
2013-03-28 22:15:00,35.7,33.1,29.99,SSW,211,0.0,7.0,90,0.00,,,0.00,Wunderground v.1.15,2013-03-29 02:15:00,
2013-03-28 22:25:00,35.8,33.2,29.99,West,261,2.0,7.0,90,0.00,,,0.00,Wunderground v.1.15,2013-03-29 02:25:00,
2013-03-28 22:30:00,35.9,33.3,29.99,West,263,1.0,7.0,90,0.00,,,0.00,Wunderground v.1.15,2013-03-29 02:30:00,
2013-03-28 22:35:00,36.7,33.8,29.99,WNW,288,1.0,7.0,89,0.00,,,0.00,Wunderground v.1.15,2013-03-29 02:35:00,
2013-03-28 22:40:00,37.1,33.6,29.99,WNW,288,1.0,1.0,87,0.00,,,0.00,Wunderground v.1.15,2013-03-29 02:40:00,
2013-03-28 22:50:00,36.6,32.8,29.99,WNW,288,0.0,7.0,86,0.00,,,0.00,Wunderground v.1.15,2013-03-29 02:50:00,
2013-03-28 22:55:00,36.4,32.9,29.98,WNW,288,0.0,7.0,87,0.00,,,0.00,Wunderground v.1.15,2013-03-29 02:55:00,
2013-03-28 23:00:00,36.3,32.8,29.99,WNW,288,0.0,7.0,87,0.00,,,0.00,Wunderground v.1.15,2013-03-29 03:00:00,
2013-03-28 23:10:00,35.9,32.4,29.99,WNW,288,0.0,7.0,87,0.00,,,0.00,Wunderground v.1.15,2013-03-29 03:10:00,
2013-03-28 23:15:00,35.7,32.2,29.99,WNW,288,0.0,7.0,87,0.00,,,0.00,Wunderground v.1.15,2013-03-29 03:15:00,
2013-03-28 23:20:00,35.3,31.8,29.99,WNW,288,0.0,7.0,87,0.00,,,0.00,Wunderground v.1.15,2013-03-29 03:20:00,
2013-03-28 23:25:00,35.2,32.0,29.99,WNW,288,0.0,7.0,88,0.00,,,0.00,Wunderground v.1.15,2013-03-29 03:25:00,
2013-03-28 23:35:00,35.1,31.9,29.99,WNW,288,0.0,7.0,88,0.00,,,0.00,Wunderground v.1.15,2013-03-29 03:35:00,
2013-03-28 23:40:00,34.8,31.6,29.99,WNW,288,0.0,7.0,88,0.00,,,0.00,Wunderground v.1.15,2013-03-29 03:40:00,
2013-03-28 23:45:00,34.4,31.2,29.99,WNW,288,0.0,7.0,88,0.00,,,0.00,Wunderground v.1.15,2013-03-29 03:45:00,
2013-03-28 23:50:00,34.1,31.2,29.99,WNW,288,0.0,7.0,89,0.00,,,0.00,Wunderground v.1.15,2013-03-29 03:50:00,
2013-03-28 23:55:00,33.8,30.9,29.99,WNW,288,0.0,7.0,89,0.00,,,0.00,Wunderground v.1.15,2013-03-29 03:55:00,